Time;durP1;ratioP1;P1;durP2;ratioP2;P2;SDS_P1;SDS_P2;PMS_P1;PMS_P2;Temp;Humidity;BMP_temperature;BMP_pressure;BME280_temperature;BME280_humidity;BME280_pressure;Samples;Min_cycle;Max_cycle;Signal;HPM_P1;HPM_P2
2022/03/27 00:02:05;;;;;;;7.85;6.40;;;10.40;99.90;;;;;;5044527;28;20568;-39
2022/03/27 00:04:30;;;;;;;8.55;6.65;;;10.40;99.90;;;;;;5044515;28;20031;-37
2022/03/27 00:06:56;;;;;;;8.32;6.82;;;10.30;99.90;;;;;;5044147;28;20024;-38
2022/03/27 00:09:22;;;;;;;9.43;7.40;;;10.30;99.90;;;;;;5045331;28;20037;-39
2022/03/27 00:11:47;;;;;;;7.85;6.07;;;10.40;99.90;;;;;;5043228;28;20021;-42
2022/03/27 00:14:13;;;;;;;7.95;6.60;;;10.40;99.90;;;;;;5045046;28;20437;-41
2022/03/27 00:16:38;;;;;;;8.75;6.15;;;10.50;99.90;;;;;;5044962;28;20542;-42
2022/03/27 00:19:04;;;;;;;7.07;6.07;;;10.50;99.90;;;;;;5043342;28;20013;-40
2022/03/27 00:21:29;;;;;;;7.38;6.53;;;10.50;99.90;;;;;;5044435;28;20558;-41
2022/03/27 00:23:55;;;;;;;7.53;6.47;;;10.50;99.90;;;;;;5044340;28;20439;-39
2022/03/27 00:26:21;;;;;;;8.68;7.25;;;10.50;99.90;;;;;;5044493;28;20431;-40
2022/03/27 00:28:48;;;;;;;8.20;6.90;;;10.50;99.90;;;;;;5044586;28;20056;-39
2022/03/27 00:31:14;;;;;;;6.63;5.93;;;10.50;99.90;;;;;;5045064;28;20055;-41
2022/03/27 00:33:41;;;;;;;6.88;6.07;;;10.60;99.90;;;;;;5044301;28;20057;-43
2022/03/27 00:36:10;;;;;;;6.80;5.90;;;10.60;99.90;;;;;;5026936;28;20025;-41
2022/03/27 00:38:36;;;;;;;7.65;6.70;;;10.60;99.90;;;;;;5044717;28;20025;-42
2022/03/27 00:41:01;;;;;;;7.80;7.00;;;10.60;99.90;;;;;;5047155;28;20044;-43
2022/03/27 00:43:27;;;;;;;7.47;6.32;;;10.60;99.90;;;;;;5048844;28;20021;-43
2022/03/27 00:45:53;;;;;;;8.25;6.50;;;10.60;99.90;;;;;;5048314;28;20024;-42
2022/03/27 00:48:21;;;;;;;7.60;6.63;;;10.60;99.90;;;;;;5047588;28;20408;-42
2022/03/27 00:50:48;;;;;;;11.05;7.93;;;10.50;99.90;;;;;;5048104;28;20372;-42
2022/03/27 00:53:14;;;;;;;8.32;6.80;;;10.50;99.90;;;;;;5048165;28;20380;-41
2022/03/27 00:55:40;;;;;;;7.88;7.00;;;10.50;99.90;;;;;;5047056;28;20053;-42
2022/03/27 00:58:06;;;;;;;8.65;7.75;;;10.50;99.90;;;;;;5048301;28;20538;-42
2022/03/27 01:00:45;;;;;;;10.25;8.73;;;10.50;99.90;;;;;;5048158;28;20036;-41
2022/03/27 01:03:17;;;;;;;10.10;8.98;;;10.50;99.90;;;;;;5048539;28;20032;-43
2022/03/27 01:05:44;;;;;;;9.75;8.40;;;10.40;99.90;;;;;;5047762;28;20025;-43
2022/03/27 01:08:13;;;;;;;10.77;9.50;;;10.30;99.90;;;;;;5047101;28;20203;-40
2022/03/27 01:10:39;;;;;;;9.85;8.73;;;10.20;99.90;;;;;;5048285;28;20013;-41
2022/03/27 01:13:10;;;;;;;9.77;8.77;;;10.20;99.90;;;;;;5047154;28;20148;-42
2022/03/27 01:15:42;;;;;;;10.32;9.32;;;10.20;99.90;;;;;;5046660;28;20079;-43
2022/03/27 01:18:07;;;;;;;10.38;8.48;;;10.20;99.90;;;;;;5048331;28;20039;-41
2022/03/27 01:20:35;;;;;;;10.85;9.73;;;10.20;99.90;;;;;;5047030;28;20048;-42
2022/03/27 01:23:12;;;;;;;10.27;8.32;;;10.20;99.90;;;;;;5046931;28;20056;-42
2022/03/27 01:25:39;;;;;;;9.43;8.48;;;10.20;99.90;;;;;;5048001;28;20095;-43
2022/03/27 01:28:06;;;;;;;11.10;9.75;;;10.20;99.90;;;;;;5047554;28;20086;-42
2022/03/27 01:30:32;;;;;;;11.40;10.20;;;10.20;99.90;;;;;;5047132;28;20032;-41
2022/03/27 01:32:58;;;;;;;11.98;10.52;;;10.20;99.90;;;;;;5047331;28;20116;-41
2022/03/27 01:35:24;;;;;;;12.77;11.48;;;10.10;99.90;;;;;;5047927;28;20103;-43
2022/03/27 01:37:50;;;;;;;12.25;10.98;;;10.10;99.90;;;;;;5046028;28;20025;-42
2022/03/27 01:40:17;;;;;;;10.50;9.40;;;10.20;99.90;;;;;;5047574;28;20041;-41
2022/03/27 01:42:46;;;;;;;12.27;10.73;;;10.10;99.90;;;;;;5046475;28;20033;-42
2022/03/27 01:45:12;;;;;;;12.30;9.65;;;10.10;99.90;;;;;;5046703;28;20465;-42
2022/03/27 01:47:38;;;;;;;11.88;10.15;;;10.10;99.90;;;;;;5047524;28;20021;-40
2022/03/27 01:50:06;;;;;;;12.82;10.88;;;10.10;99.90;;;;;;5046134;28;20063;-43
2022/03/27 01:52:32;;;;;;;11.95;10.75;;;10.20;99.90;;;;;;5046920;28;20068;-42
2022/03/27 01:54:58;;;;;;;11.52;10.25;;;10.20;99.90;;;;;;5046613;28;20171;-40
2022/03/27 01:57:23;;;;;;;12.05;10.85;;;10.20;99.90;;;;;;5046443;28;20123;-42
2022/03/27 01:59:49;;;;;;;12.82;10.32;;;10.20;99.90;;;;;;5046389;28;20495;-42
2022/03/27 02:02:17;;;;;;;11.90;10.32;;;10.20;99.90;;;;;;5047345;28;20048;-42
2022/03/27 02:04:43;;;;;;;11.90;10.13;;;10.20;99.90;;;;;;5045945;28;20045;-41
2022/03/27 02:07:08;;;;;;;11.25;9.90;;;10.20;99.90;;;;;;5046472;28;20025;-43
2022/03/27 02:09:34;;;;;;;12.30;10.55;;;10.20;99.90;;;;;;5046972;28;20025;-42
2022/03/27 02:11:59;;;;;;;13.38;11.05;;;10.20;99.90;;;;;;5045250;28;20102;-43
2022/03/27 02:14:25;;;;;;;10.30;9.30;;;10.10;99.90;;;;;;5046842;28;20086;-42
2022/03/27 02:16:50;;;;;;;11.88;10.57;;;10.10;99.90;;;;;;5045766;28;20540;-43
2022/03/27 02:19:16;;;;;;;13.43;10.43;;;10.00;99.90;;;;;;5046729;28;20032;-41
2022/03/27 02:21:42;;;;;;;11.00;9.90;;;10.00;99.90;;;;;;5045862;28;20051;-42
2022/03/27 02:24:09;;;;;;;11.38;10.00;;;9.90;99.90;;;;;;5046601;28;20621;-42
2022/03/27 02:26:35;;;;;;;11.70;9.93;;;9.80;99.90;;;;;;5046181;28;20047;-41
2022/03/27 02:29:01;;;;;;;11.80;10.32;;;9.80;99.90;;;;;;5046059;28;20025;-40
2022/03/27 02:31:27;;;;;;;10.57;9.48;;;9.70;99.90;;;;;;5046463;28;20036;-42
2022/03/27 02:33:53;;;;;;;9.88;8.88;;;9.60;99.90;;;;;;5045490;28;20417;-42
2022/03/27 02:36:18;;;;;;;11.23;10.02;;;9.60;99.90;;;;;;5046316;28;20033;-41
2022/03/27 02:38:44;;;;;;;9.88;8.88;;;9.60;99.90;;;;;;5046365;28;20040;-41
2022/03/27 02:41:11;;;;;;;10.38;9.27;;;9.60;99.90;;;;;;5045835;28;20040;-42
2022/03/27 02:43:38;;;;;;;10.27;9.15;;;9.60;99.90;;;;;;5042912;28;20447;-40
2022/03/27 02:46:05;;;;;;;10.93;9.82;;;9.60;99.90;;;;;;5045077;28;20028;-42
2022/03/27 02:48:31;;;;;;;11.70;10.23;;;9.60;99.90;;;;;;5045775;28;20606;-42
2022/03/27 02:50:56;;;;;;;12.18;9.57;;;9.60;99.90;;;;;;5046132;28;20518;-42
2022/03/27 02:53:22;;;;;;;11.38;9.90;;;9.60;99.90;;;;;;5045635;28;20039;-41
2022/03/27 02:55:48;;;;;;;10.70;9.60;;;9.60;99.90;;;;;;5046089;28;20124;-40
2022/03/27 02:58:13;;;;;;;11.80;10.45;;;9.60;99.90;;;;;;5045774;28;20028;-42
2022/03/27 03:00:41;;;;;;;12.35;10.15;;;9.60;99.90;;;;;;5045347;28;20102;-42
2022/03/27 03:03:07;;;;;;;11.65;9.93;;;9.60;99.90;;;;;;5044846;28;20039;-43
2022/03/27 03:05:33;;;;;;;11.48;9.25;;;9.60;99.90;;;;;;5045993;28;20155;-42
2022/03/27 03:08:01;;;;;;;11.98;9.88;;;9.60;99.90;;;;;;5044664;28;20104;-43
2022/03/27 03:10:26;;;;;;;13.27;10.27;;;9.60;99.90;;;;;;5045508;28;20041;-42
2022/03/27 03:12:52;;;;;;;11.38;9.52;;;9.70;99.90;;;;;;5044787;28;20480;-41
2022/03/27 03:15:17;;;;;;;13.65;10.57;;;9.70;99.90;;;;;;5045297;28;20116;-42
2022/03/27 03:17:43;;;;;;;15.90;11.75;;;9.70;99.90;;;;;;5045178;28;20353;-39
2022/03/27 03:20:09;;;;;;;13.15;10.23;;;9.70;99.90;;;;;;5045558;28;20071;-41
2022/03/27 03:22:35;;;;;;;12.88;10.23;;;9.70;99.90;;;;;;5044294;28;20045;-42
2022/03/27 03:25:01;;;;;;;14.27;11.07;;;9.70;99.90;;;;;;5044854;28;20047;-41
2022/03/27 03:27:27;;;;;;;11.57;9.52;;;9.70;99.90;;;;;;5045647;28;20824;-41
2022/03/27 03:29:52;;;;;;;11.65;9.52;;;9.60;99.90;;;;;;5043595;28;20025;-42
2022/03/27 03:32:18;;;;;;;12.55;9.15;;;9.60;99.90;;;;;;5045484;28;20140;-42
2022/03/27 03:34:43;;;;;;;12.70;9.20;;;9.50;99.90;;;;;;5044285;28;20025;-41
2022/03/27 03:37:09;;;;;;;14.07;10.20;;;9.50;99.90;;;;;;5044792;28;20032;-42
2022/03/27 03:39:34;;;;;;;18.30;12.77;;;9.40;99.90;;;;;;5045280;28;20039;-40
2022/03/27 03:42:00;;;;;;;17.63;12.07;;;9.30;99.90;;;;;;5044341;28;20445;-42
2022/03/27 03:44:26;;;;;;;18.30;12.23;;;9.20;99.90;;;;;;5044148;28;20056;-40
2022/03/27 03:46:55;;;;;;;17.83;11.77;;;9.20;99.90;;;;;;5044590;28;20107;-40
2022/03/27 03:49:21;;;;;;;18.48;12.70;;;9.20;99.90;;;;;;5044503;28;20411;-38
2022/03/27 03:51:46;;;;;;;16.27;11.20;;;9.20;99.90;;;;;;5044279;28;20036;-43
2022/03/27 03:54:13;;;;;;;18.80;12.50;;;9.10;99.90;;;;;;5044614;28;20061;-41
2022/03/27 03:56:38;;;;;;;22.13;12.98;;;9.10;99.90;;;;;;5044563;28;20532;-41
2022/03/27 03:59:04;;;;;;;17.80;12.15;;;9.10;99.90;;;;;;5043898;28;20112;-43
2022/03/27 04:01:30;;;;;;;18.77;12.35;;;9.20;99.90;;;;;;5045179;28;20492;-41
2022/03/27 04:03:55;;;;;;;19.48;12.50;;;9.20;99.90;;;;;;5043776;28;20112;-39
2022/03/27 04:06:22;;;;;;;19.33;12.60;;;9.20;99.90;;;;;;5044922;28;20564;-42
2022/03/27 04:08:48;;;;;;;18.42;11.77;;;9.20;99.90;;;;;;5044831;28;20025;-40
2022/03/27 04:11:16;;;;;;;19.42;12.38;;;9.20;99.90;;;;;;5043587;28;20464;-41
2022/03/27 04:13:45;;;;;;;19.33;12.32;;;9.20;99.90;;;;;;5044387;28;20043;-41
2022/03/27 04:16:12;;;;;;;24.15;15.00;;;9.20;99.90;;;;;;5044879;28;20139;-40
2022/03/27 04:18:39;;;;;;;25.60;15.80;;;9.20;99.90;;;;;;5043634;28;20037;-40
2022/03/27 04:21:04;;;;;;;24.83;15.93;;;9.20;99.90;;;;;;5043768;28;20041;-44
2022/03/27 04:23:30;;;;;;;24.88;15.45;;;9.10;99.90;;;;;;5044962;28;20324;-42
2022/03/27 04:25:56;;;;;;;25.90;15.23;;;9.00;99.90;;;;;;5043047;28;20031;-41
2022/03/27 04:28:22;;;;;;;24.70;15.05;;;9.00;99.90;;;;;;5044976;28;20029;-42
2022/03/27 04:30:51;;;;;;;26.67;15.38;;;8.90;99.90;;;;;;5044204;28;20047;-42
2022/03/27 04:33:16;;;;;;;24.77;14.70;;;8.90;99.90;;;;;;5043790;28;20112;-39
2022/03/27 04:35:43;;;;;;;24.27;13.90;;;8.80;99.90;;;;;;5043671;28;20527;-40
2022/03/27 04:38:09;;;;;;;26.67;16.33;;;8.80;99.90;;;;;;5044862;28;20040;-42
2022/03/27 04:40:38;;;;;;;27.27;16.63;;;8.80;99.90;;;;;;5043353;28;20036;-40
2022/03/27 04:43:03;;;;;;;25.63;15.27;;;8.80;99.90;;;;;;5035609;28;20034;-41
2022/03/27 04:45:29;;;;;;;26.08;15.63;;;8.80;99.90;;;;;;5043870;28;20033;-42
2022/03/27 04:47:55;;;;;;;24.08;14.95;;;8.80;99.90;;;;;;5043315;28;20021;-43
2022/03/27 04:50:20;;;;;;;23.60;14.63;;;8.80;99.90;;;;;;5044423;28;20028;-41
2022/03/27 04:52:46;;;;;;;26.00;15.23;;;8.80;99.90;;;;;;5042795;28;20055;-42
2022/03/27 04:55:11;;;;;;;26.30;15.45;;;8.80;99.90;;;;;;5044184;28;20052;-40
2022/03/27 04:57:39;;;;;;;29.38;17.35;;;8.80;99.90;;;;;;5044482;28;20033;-41
2022/03/27 05:00:17;;;;;;;25.40;15.00;;;8.80;99.90;;;;;;5043209;28;20025;-43
2022/03/27 05:02:44;;;;;;;28.27;16.55;;;8.70;99.90;;;;;;5043939;28;20036;-42
2022/03/27 05:05:11;;;;;;;25.25;15.07;;;8.70;99.90;;;;;;5044596;28;20500;-42
2022/03/27 05:07:38;;;;;;;24.58;15.07;;;8.60;99.90;;;;;;5043937;28;20036;-43
2022/03/27 05:10:05;;;;;;;22.67;14.60;;;8.50;99.90;;;;;;5044007;28;20060;-41
2022/03/27 05:12:31;;;;;;;22.02;14.75;;;8.50;99.90;;;;;;5044000;28;20029;-41
2022/03/27 05:14:57;;;;;;;22.10;14.23;;;8.50;99.90;;;;;;5043634;28;20017;-41
2022/03/27 05:17:22;;;;;;;20.85;12.93;;;8.50;99.90;;;;;;5044109;28;20080;-41
2022/03/27 05:19:48;;;;;;;22.73;14.30;;;8.40;99.90;;;;;;5043333;28;20025;-42
2022/03/27 05:22:14;;;;;;;23.38;14.45;;;8.30;99.90;;;;;;5043506;28;20048;-42
2022/03/27 05:24:40;;;;;;;20.35;13.25;;;8.30;99.90;;;;;;5044048;28;20064;-42
2022/03/27 05:27:05;;;;;;;20.33;13.00;;;8.20;99.90;;;;;;5045358;28;20174;-41
2022/03/27 05:29:31;;;;;;;18.38;13.15;;;8.20;99.90;;;;;;5047408;28;20029;-41
2022/03/27 05:31:58;;;;;;;20.83;12.25;;;8.10;99.90;;;;;;5046765;28;20409;-40
2022/03/27 05:34:24;;;;;;;17.52;12.43;;;8.00;99.90;;;;;;5047489;28;20032;-42
2022/03/27 05:36:49;;;;;;;19.50;12.30;;;8.00;99.90;;;;;;5046447;28;20037;-42
2022/03/27 05:39:15;;;;;;;14.55;10.75;;;7.90;99.90;;;;;;5047568;28;20017;-43
2022/03/27 05:41:40;;;;;;;16.42;10.82;;;7.90;99.90;;;;;;5047414;28;20037;-42
2022/03/27 05:44:06;;;;;;;14.63;10.85;;;7.80;99.90;;;;;;5047247;28;20017;-42
2022/03/27 05:46:31;;;;;;;17.30;12.20;;;7.70;99.90;;;;;;5047933;28;20029;-40
2022/03/27 05:48:57;;;;;;;17.00;11.60;;;7.70;99.90;;;;;;5045472;28;20120;-40
2022/03/27 05:51:22;;;;;;;17.10;12.07;;;7.70;99.90;;;;;;5046963;28;20032;-42
2022/03/27 05:53:48;;;;;;;16.55;11.68;;;7.60;99.90;;;;;;5046662;28;20045;-43
2022/03/27 05:56:14;;;;;;;16.50;12.15;;;7.70;99.90;;;;;;5046304;28;20115;-41
2022/03/27 05:58:42;;;;;;;17.33;11.55;;;7.70;99.90;;;;;;5047020;28;20036;-39
2022/03/27 06:01:07;;;;;;;17.45;11.60;;;7.70;99.90;;;;;;5046846;28;20052;-42
2022/03/27 06:03:33;;;;;;;16.58;11.38;;;7.70;99.90;;;;;;5046101;28;20041;-42
2022/03/27 06:05:59;;;;;;;18.23;11.40;;;7.70;99.90;;;;;;5046823;28;20123;-41
2022/03/27 06:08:24;;;;;;;17.70;11.38;;;7.70;99.90;;;;;;5047031;28;20048;-42
2022/03/27 06:10:50;;;;;;;20.10;11.88;;;7.60;99.90;;;;;;5045604;28;20074;-43
2022/03/27 06:13:17;;;;;;;19.10;12.20;;;7.60;99.90;;;;;;5046725;28;20048;-41
2022/03/27 06:15:43;;;;;;;20.75;12.48;;;7.60;99.90;;;;;;5042630;28;20488;-42
2022/03/27 06:18:10;;;;;;;21.80;13.80;;;7.60;99.90;;;;;;5046028;28;20025;-42
2022/03/27 06:20:36;;;;;;;19.33;13.00;;;7.50;99.90;;;;;;5046350;28;20044;-43
2022/03/27 06:23:02;;;;;;;21.63;13.50;;;7.50;99.90;;;;;;5046195;28;20513;-42
2022/03/27 06:25:28;;;;;;;23.33;13.90;;;7.50;99.90;;;;;;5045612;28;20079;-42
2022/03/27 06:27:55;;;;;;;23.58;14.57;;;7.50;99.90;;;;;;5046391;28;20059;-42
2022/03/27 06:30:27;;;;;;;23.85;15.02;;;7.50;99.90;;;;;;5044741;28;20041;-42
2022/03/27 06:32:53;;;;;;;28.02;16.17;;;7.50;99.90;;;;;;5050626;28;20971;-42
2022/03/27 06:35:21;;;;;;;27.88;15.13;;;7.50;99.90;;;;;;5046146;28;20116;-42
2022/03/27 06:37:47;;;;;;;23.98;13.95;;;7.50;99.90;;;;;;5045328;28;20025;-40
2022/03/27 06:40:14;;;;;;;23.63;14.57;;;7.50;99.90;;;;;;5045245;28;20025;-42
2022/03/27 06:42:43;;;;;;;23.23;14.00;;;7.40;99.90;;;;;;5050291;28;20043;-43
2022/03/27 06:45:13;;;;;;;23.92;13.75;;;7.50;99.90;;;;;;5056609;28;20025;-40
2022/03/27 06:47:40;;;;;;;23.20;13.48;;;7.60;99.90;;;;;;5046460;28;20098;-42
2022/03/27 06:50:06;;;;;;;21.73;12.77;;;7.60;99.90;;;;;;5045232;28;20025;-41
2022/03/27 06:52:33;;;;;;;21.45;12.60;;;7.70;99.90;;;;;;5047362;28;20037;-41
2022/03/27 06:54:58;;;;;;;22.17;12.98;;;7.70;99.90;;;;;;5045042;28;20037;-41
2022/03/27 06:57:24;;;;;;;21.25;12.82;;;7.80;99.90;;;;;;5049361;28;20043;-42
2022/03/27 07:05:20;;;;;;;27.67;15.60;;;7.80;99.90;;;;;;5045503;28;20071;-39
2022/03/27 07:07:45;;;;;;;26.63;14.95;;;7.80;99.90;;;;;;5043919;28;20116;-41
2022/03/27 07:10:11;;;;;;;24.80;14.63;;;7.90;99.90;;;;;;5045321;28;20024;-38
2022/03/27 07:12:38;;;;;;;24.95;14.95;;;7.80;99.90;;;;;;5045867;28;20056;-41
2022/03/27 07:15:05;;;;;;;29.08;15.88;;;7.80;99.90;;;;;;5044152;28;20021;-40
2022/03/27 07:17:30;;;;;;;26.65;15.30;;;7.80;99.90;;;;;;5045232;28;20602;-41
2022/03/27 07:19:59;;;;;;;22.73;14.43;;;7.70;99.90;;;;;;5042961;28;20472;-40
2022/03/27 07:22:25;;;;;;;22.42;13.85;;;7.70;99.90;;;;;;5042876;28;20072;-42
2022/03/27 07:24:51;;;;;;;21.15;13.18;;;7.70;99.90;;;;;;5043460;28;20052;-42
2022/03/27 07:27:16;;;;;;;19.42;11.95;;;7.80;99.90;;;;;;5042989;28;20762;-40
2022/03/27 07:29:42;;;;;;;20.30;12.15;;;7.80;99.90;;;;;;5044413;28;20047;-41
2022/03/27 07:32:08;;;;;;;17.80;11.35;;;7.80;99.90;;;;;;5044523;28;20043;-41
2022/03/27 07:34:35;;;;;;;20.88;12.23;;;7.90;99.90;;;;;;5044412;28;20021;-42
2022/03/27 07:37:01;;;;;;;20.15;13.00;;;8.00;99.90;;;;;;5043456;28;20475;-41
2022/03/27 07:39:27;;;;;;;23.52;13.90;;;8.00;99.90;;;;;;5044334;28;20392;-42
2022/03/27 07:41:53;;;;;;;23.83;13.85;;;8.10;99.90;;;;;;5043680;28;20032;-41
2022/03/27 07:44:18;;;;;;;22.20;13.63;;;8.00;99.90;;;;;;5045103;28;20040;-42
2022/03/27 07:46:44;;;;;;;23.10;14.75;;;8.00;99.90;;;;;;5044615;28;20064;-43
2022/03/27 07:49:10;;;;;;;24.42;15.60;;;8.00;99.90;;;;;;5044032;28;20028;-43
2022/03/27 07:51:36;;;;;;;22.65;14.30;;;8.00;99.90;;;;;;5044659;28;20766;-40
2022/03/27 07:54:02;;;;;;;22.90;14.02;;;8.00;99.90;;;;;;5044718;28;20057;-42
2022/03/27 07:56:29;;;;;;;23.60;14.55;;;8.00;99.90;;;;;;5044183;28;20408;-42
2022/03/27 07:58:55;;;;;;;23.95;15.32;;;8.00;99.90;;;;;;5044613;28;20052;-42
2022/03/27 08:01:22;;;;;;;23.13;13.95;;;8.10;99.90;;;;;;5045280;28;20083;-43
2022/03/27 08:03:48;;;;;;;21.35;13.75;;;8.10;99.90;;;;;;5043229;28;20037;-41
2022/03/27 08:06:14;;;;;;;19.83;12.63;;;8.10;99.90;;;;;;5045036;28;20025;-42
2022/03/27 08:08:39;;;;;;;19.95;12.95;;;8.10;99.90;;;;;;5045186;28;20033;-42
2022/03/27 08:11:05;;;;;;;20.23;13.68;;;8.20;99.90;;;;;;5042120;28;20326;-41
2022/03/27 08:13:31;;;;;;;21.65;14.32;;;8.20;99.90;;;;;;5045253;28;20551;-42
2022/03/27 08:15:56;;;;;;;22.60;15.20;;;8.30;99.90;;;;;;5043994;28;20036;-43
2022/03/27 08:18:22;;;;;;;20.75;14.30;;;8.30;99.90;;;;;;5043877;28;20029;-40
2022/03/27 08:20:47;;;;;;;20.10;13.73;;;8.40;99.90;;;;;;5044435;28;20516;-41
2022/03/27 08:23:13;;;;;;;18.92;13.70;;;8.40;99.90;;;;;;5047803;28;20044;-42
2022/03/27 08:28:23;;;;;;;21.33;13.68;;;8.40;99.90;;;;;;5044203;28;20052;-44
2022/03/27 08:30:49;;;;;;;17.23;12.10;;;8.60;99.90;;;;;;5043406;28;20024;-41
2022/03/27 08:33:16;;;;;;;19.08;12.82;;;8.60;99.90;;;;;;5043977;28;20076;-41
2022/03/27 08:35:43;;;;;;;19.50;13.68;;;8.70;99.90;;;;;;5043285;28;20405;-43
2022/03/27 08:38:13;;;;;;;16.98;11.82;;;8.70;99.90;;;;;;5043064;28;20029;-40
2022/03/27 08:40:44;;;;;;;18.00;12.52;;;8.80;99.90;;;;;;5043904;28;20473;-41
2022/03/27 08:43:16;;;;;;;17.58;12.10;;;8.90;99.90;;;;;;5044415;28;20040;-39
2022/03/27 08:45:43;;;;;;;16.75;11.57;;;8.90;99.90;;;;;;5042451;28;20370;-41
2022/03/27 08:48:10;;;;;;;15.23;10.50;;;9.00;99.90;;;;;;5044256;28;20025;-42
2022/03/27 08:51:02;;;;;;;16.98;11.05;;;9.00;99.90;;;;;;5043585;28;20025;-41
2022/03/27 08:53:40;;;;;;;13.60;10.20;;;9.10;99.90;;;;;;5042180;28;20068;-43
2022/03/27 08:56:06;;;;;;;16.88;11.57;;;9.20;99.90;;;;;;5041378;28;20037;-44
2022/03/27 08:58:38;;;;;;;15.20;10.52;;;9.30;99.90;;;;;;5043350;28;20087;-41
2022/03/27 09:01:07;;;;;;;18.67;12.32;;;9.30;99.90;;;;;;5043520;28;20020;-42
2022/03/27 09:03:33;;;;;;;17.17;11.07;;;9.30;99.90;;;;;;5047630;28;20487;-42
2022/03/27 09:06:01;;;;;;;16.38;11.32;;;9.40;99.90;;;;;;5045152;28;20359;-42
2022/03/27 09:08:29;;;;;;;17.50;11.77;;;9.50;99.90;;;;;;5047346;28;20021;-42
2022/03/27 09:10:55;;;;;;;15.43;11.75;;;9.50;99.90;;;;;;5046448;28;20368;-42
2022/03/27 09:13:21;;;;;;;18.20;11.73;;;9.60;99.90;;;;;;5047071;28;20108;-40
2022/03/27 09:16:03;;;;;;;14.27;10.43;;;9.60;99.90;;;;;;5047232;28;20094;-42
2022/03/27 09:18:49;;;;;;;13.70;9.95;;;9.70;99.90;;;;;;5048268;28;20029;-42
2022/03/27 09:21:16;;;;;;;13.35;10.20;;;9.70;99.90;;;;;;5047507;28;20060;-42
2022/03/27 09:23:42;;;;;;;13.90;9.68;;;9.80;99.90;;;;;;5047289;28;20061;-43
2022/03/27 09:26:16;;;;;;;14.50;10.07;;;9.90;99.90;;;;;;5047160;28;20055;-42
2022/03/27 09:28:44;;;;;;;14.80;10.43;;;9.90;99.90;;;;;;5046053;28;20029;-40
2022/03/27 09:31:18;;;;;;;15.48;11.57;;;10.00;99.90;;;;;;5047582;28;20054;-42
2022/03/27 09:34:03;;;;;;;17.95;12.07;;;10.00;99.90;;;;;;5046901;28;20031;-40
2022/03/27 09:36:39;;;;;;;14.23;10.90;;;10.10;99.90;;;;;;5047202;28;20040;-42
2022/03/27 09:39:15;;;;;;;16.70;10.10;;;10.20;99.90;;;;;;5047308;28;20082;-41
2022/03/27 09:41:44;;;;;;;14.30;10.15;;;10.30;99.90;;;;;;5046143;28;20144;-41
2022/03/27 09:44:14;;;;;;;12.95;8.95;;;10.30;99.90;;;;;;5047462;28;20108;-43
2022/03/27 09:47:04;;;;;;;15.93;10.30;;;10.30;99.90;;;;;;5047693;28;20036;-41
2022/03/27 09:49:35;;;;;;;15.32;11.18;;;10.40;99.90;;;;;;5047573;28;20036;-42
2022/03/27 09:52:05;;;;;;;14.45;9.73;;;10.50;99.80;;;;;;5046614;28;20463;-42
2022/03/27 09:54:46;;;;;;;13.60;9.38;;;10.60;99.70;;;;;;5047652;28;20044;-43
2022/03/27 09:57:20;;;;;;;12.55;9.15;;;10.70;99.20;;;;;;5046737;28;20032;-41
2022/03/27 09:59:46;;;;;;;12.70;8.63;;;10.70;99.00;;;;;;5046742;28;20040;-41
2022/03/27 10:02:21;;;;;;;16.40;10.32;;;10.80;98.70;;;;;;5046030;28;20044;-41
2022/03/27 10:05:15;;;;;;;12.90;9.27;;;10.80;98.30;;;;;;5046869;28;20025;-41
2022/03/27 10:07:47;;;;;;;13.32;9.32;;;10.90;97.70;;;;;;5046638;28;20052;-41
2022/03/27 10:10:15;;;;;;;12.80;8.90;;;11.00;97.30;;;;;;5046472;28;20025;-42
2022/03/27 10:12:43;;;;;;;11.40;7.80;;;11.00;97.10;;;;;;5045790;28;20803;-42
2022/03/27 10:15:15;;;;;;;10.40;7.25;;;11.10;97.10;;;;;;5047361;28;20348;-42
2022/03/27 10:17:45;;;;;;;;;;;11.20;96.80;;;;;;5045530;28;20111;-41
2022/03/27 10:20:13;;;;;;;11.00;7.40;;;11.30;96.70;;;;;;5046954;28;19915;-43
2022/03/27 10:22:52;;;;;;;11.20;7.78;;;11.40;96.80;;;;;;5046710;28;20031;-42
2022/03/27 10:25:18;;;;;;;11.32;7.57;;;11.40;96.30;;;;;;5046336;28;20036;-41
2022/03/27 10:27:46;;;;;;;11.82;8.68;;;11.40;96.10;;;;;;5046140;28;20028;-41
2022/03/27 10:30:14;;;;;;;14.35;9.75;;;11.60;95.50;;;;;;5046518;28;20051;-42
2022/03/27 10:32:41;;;;;;;13.43;8.65;;;11.60;95.70;;;;;;5046817;28;20076;-42
2022/03/27 10:35:22;;;;;;;15.98;10.55;;;11.70;96.10;;;;;;5046090;28;20039;-42
2022/03/27 10:38:08;;;;;;;14.90;10.55;;;11.80;96.50;;;;;;5045210;28;20056;-42
2022/03/27 10:40:34;;;;;;;13.00;9.45;;;11.90;96.70;;;;;;5046393;28;20060;-42
2022/03/27 10:43:24;;;;;;;13.00;9.00;;;11.90;96.80;;;;;;5045678;28;20491;-41
2022/03/27 10:46:13;;;;;;;14.20;10.05;;;11.90;97.00;;;;;;5045239;28;20479;-40
2022/03/27 10:48:42;;;;;;;17.75;10.38;;;12.00;97.10;;;;;;5046336;28;20017;-44
2022/03/27 10:51:30;;;;;;;15.32;10.98;;;12.10;96.80;;;;;;5046416;28;20032;-41
2022/03/27 10:54:02;;;;;;;11.35;8.98;;;12.10;96.30;;;;;;5041309;28;20128;-43
2022/03/27 10:56:51;;;;;;;12.82;9.10;;;12.10;96.40;;;;;;5046279;28;20535;-41
2022/03/27 10:59:26;;;;;;;10.98;8.55;;;12.10;96.50;;;;;;5044896;28;20476;-43
2022/03/27 11:01:58;;;;;;;8.13;6.38;;;12.20;96.60;;;;;;5045361;28;20041;-42
2022/03/27 11:04:38;;;;;;;10.70;6.68;;;12.20;96.50;;;;;;5046110;28;20017;-42
2022/03/27 11:07:16;;;;;;;11.63;7.53;;;12.30;96.30;;;;;;5045511;28;20078;-43
2022/03/27 11:09:44;;;;;;;11.10;7.07;;;12.30;96.60;;;;;;5045452;28;20029;-42
2022/03/27 11:12:25;;;;;;;10.43;6.80;;;12.40;96.40;;;;;;5045506;28;20040;-42
2022/03/27 11:14:57;;;;;;;9.13;6.22;;;12.40;95.80;;;;;;5045148;28;20068;-42
2022/03/27 11:17:38;;;;;;;10.32;5.57;;;12.50;95.30;;;;;;5046084;28;20035;-40
2022/03/27 11:20:21;;;;;;;9.60;6.20;;;12.50;94.60;;;;;;5044148;28;20029;-40
2022/03/27 11:22:58;;;;;;;12.30;7.65;;;12.60;94.60;;;;;;5024818;28;20140;-42
2022/03/27 11:25:37;;;;;;;9.70;6.78;;;12.60;94.70;;;;;;5041123;28;20098;-43
2022/03/27 11:28:11;;;;;;;9.43;6.55;;;12.60;94.80;;;;;;5024015;28;20042;-40
2022/03/27 11:30:38;;;;;;;9.07;6.35;;;12.70;94.90;;;;;;5041561;28;20021;-41
2022/03/27 11:33:16;;;;;;;9.98;6.95;;;12.70;95.00;;;;;;5045126;28;20052;-42
2022/03/27 11:36:09;;;;;;;8.73;6.68;;;12.80;95.00;;;;;;5044682;28;20021;-42
2022/03/27 11:38:52;;;;;;;7.47;6.10;;;12.90;95.00;;;;;;5025893;28;20771;-41
2022/03/27 11:41:25;;;;;;;9.38;6.40;;;13.00;95.10;;;;;;5043796;28;20551;-39
2022/03/27 11:43:55;;;;;;;7.90;5.93;;;13.10;94.80;;;;;;5045185;28;20029;-41
2022/03/27 11:46:26;;;;;;;6.82;5.20;;;13.20;94.80;;;;;;5045215;28;20064;-41
2022/03/27 11:49:00;;;;;;;6.15;4.68;;;13.20;94.70;;;;;;5044634;28;20037;-41
2022/03/27 11:51:27;;;;;;;10.13;5.70;;;13.30;94.60;;;;;;5045695;28;20180;-41
2022/03/27 11:53:54;;;;;;;8.43;5.53;;;13.40;94.20;;;;;;5044766;28;20130;-41
2022/03/27 11:56:20;;;;;;;7.25;5.03;;;13.40;94.10;;;;;;5044666;28;20028;-41
2022/03/27 11:59:06;;;;;;;7.57;5.15;;;13.50;94.10;;;;;;5045569;28;20029;-43
2022/03/27 12:01:32;;;;;;;7.28;4.55;;;13.60;94.30;;;;;;5044419;28;20542;-42
2022/03/27 12:03:59;;;;;;;7.40;5.15;;;13.60;94.00;;;;;;5044294;28;20489;-41
2022/03/27 12:06:28;;;;;;;7.85;5.60;;;13.60;93.90;;;;;;5044353;28;20033;-43
2022/03/27 12:08:55;;;;;;;8.85;5.55;;;13.70;93.90;;;;;;5044112;28;20195;-43
2022/03/27 12:11:23;;;;;;;8.07;5.40;;;13.70;93.60;;;;;;5044715;28;20498;-42
2022/03/27 12:13:49;;;;;;;7.28;5.68;;;13.80;93.50;;;;;;5044708;28;20041;-40
2022/03/27 12:16:23;;;;;;;9.38;5.82;;;13.80;93.40;;;;;;5044075;28;20057;-41
2022/03/27 12:18:49;;;;;;;7.00;4.97;;;13.90;93.30;;;;;;5044093;28;20122;-42
2022/03/27 12:21:20;;;;;;;6.47;5.07;;;13.90;93.30;;;;;;5044499;28;20029;-42
2022/03/27 12:23:55;;;;;;;9.27;5.28;;;14.00;93.20;;;;;;5043900;28;20033;-41
2022/03/27 12:32:19;;;;;;;8.18;4.47;;;14.00;92.60;;;;;;5043895;28;20040;-42
2022/03/27 12:34:46;;;;;;;6.47;5.00;;;14.10;92.70;;;;;;5044195;28;20028;-41
2022/03/27 12:37:17;;;;;;;8.15;4.82;;;14.10;92.40;;;;;;5047763;28;20614;-41
2022/03/27 12:39:48;;;;;;;8.73;4.78;;;14.10;92.20;;;;;;5047798;28;20040;-43
2022/03/27 12:42:29;;;;;;;7.75;4.47;;;14.20;92.20;;;;;;5048725;28;20036;-42
2022/03/27 12:45:00;;;;;;;4.38;3.95;;;14.20;92.20;;;;;;5047687;28;20064;-42
2022/03/27 12:47:41;;;;;;;7.18;4.53;;;14.30;92.20;;;;;;5048430;28;20074;-42
2022/03/27 12:50:34;;;;;;;7.03;3.97;;;14.40;92.10;;;;;;5048673;28;20040;-42
2022/03/27 12:53:13;;;;;;;6.60;4.60;;;14.40;91.90;;;;;;5046077;28;20116;-41
2022/03/27 12:55:55;;;;;;;6.65;3.95;;;14.40;91.90;;;;;;5047994;28;20057;-43
2022/03/27 12:58:33;;;;;;;5.03;4.10;;;14.50;92.00;;;;;;5047347;28;20491;-42
2022/03/27 13:01:13;;;;;;;6.25;4.13;;;14.50;92.20;;;;;;5028132;28;20037;-42